sensor_id;sensor_type;location;lat;lon;timestamp;temperature;humidity
12726;DHT22;6427;49.754;6.106;2024-03-23T00:55:27;11.40;99.90
12726;DHT22;6427;49.754;6.106;2024-03-23T00:57:55;11.40;99.90
12726;DHT22;6427;49.754;6.106;2024-03-23T01:00:22;11.30;99.90
12726;DHT22;6427;49.754;6.106;2024-03-23T01:02:50;11.20;99.90
12726;DHT22;6427;49.754;6.106;2024-03-23T01:05:17;11.20;99.90
12726;DHT22;6427;49.754;6.106;2024-03-23T01:07:45;11.20;99.90
12726;DHT22;6427;49.754;6.106;2024-03-23T01:10:13;11.60;99.90
12726;DHT22;6427;49.754;6.106;2024-03-23T01:12:40;11.50;99.90
12726;DHT22;6427;49.754;6.106;2024-03-23T01:15:08;11.40;99.90
12726;DHT22;6427;49.754;6.106;2024-03-23T01:17:36;11.40;99.90
12726;DHT22;6427;49.754;6.106;2024-03-23T01:20:03;11.30;99.90
12726;DHT22;6427;49.754;6.106;2024-03-23T01:22:31;11.20;99.90
12726;DHT22;6427;49.754;6.106;2024-03-23T01:24:59;11.20;99.90
12726;DHT22;6427;49.754;6.106;2024-03-23T01:27:27;11.50;99.90
12726;DHT22;6427;49.754;6.106;2024-03-23T01:29:54;11.40;99.90
12726;DHT22;6427;49.754;6.106;2024-03-23T01:34:54;11.70;99.90
12726;DHT22;6427;49.754;6.106;2024-03-23T01:37:22;11.50;99.90
12726;DHT22;6427;49.754;6.106;2024-03-23T01:39:50;11.20;99.90
12726;DHT22;6427;49.754;6.106;2024-03-23T01:42:17;10.90;99.90
12726;DHT22;6427;49.754;6.106;2024-03-23T01:44:45;11.00;99.90
12726;DHT22;6427;49.754;6.106;2024-03-23T01:47:12;10.70;99.90
12726;DHT22;6427;49.754;6.106;2024-03-23T01:49:40;10.60;99.90
12726;DHT22;6427;49.754;6.106;2024-03-23T01:52:07;10.40;99.90
12726;DHT22;6427;49.754;6.106;2024-03-23T01:54:35;10.20;99.90
12726;DHT22;6427;49.754;6.106;2024-03-23T01:57:02;10.40;99.90
12726;DHT22;6427;49.754;6.106;2024-03-23T01:59:30;10.20;99.90
12726;DHT22;6427;49.754;6.106;2024-03-23T02:01:58;10.10;99.90
12726;DHT22;6427;49.754;6.106;2024-03-23T02:04:25;9.90;99.90
12726;DHT22;6427;49.754;6.106;2024-03-23T02:06:53;9.80;99.90
12726;DHT22;6427;49.754;6.106;2024-03-23T02:09:20;9.80;99.90
12726;DHT22;6427;49.754;6.106;2024-03-23T02:11:49;9.60;99.90
12726;DHT22;6427;49.754;6.106;2024-03-23T02:14:16;9.60;99.90
12726;DHT22;6427;49.754;6.106;2024-03-23T02:16:44;9.60;99.90
12726;DHT22;6427;49.754;6.106;2024-03-23T02:19:11;9.50;99.90
12726;DHT22;6427;49.754;6.106;2024-03-23T02:21:39;9.50;99.90
12726;DHT22;6427;49.754;6.106;2024-03-23T02:24:07;9.30;99.90
12726;DHT22;6427;49.754;6.106;2024-03-23T02:26:35;9.30;99.90
12726;DHT22;6427;49.754;6.106;2024-03-23T02:29:02;9.30;99.90
12726;DHT22;6427;49.754;6.106;2024-03-23T02:31:30;9.30;99.90
12726;DHT22;6427;49.754;6.106;2024-03-23T02:33:58;9.30;99.90
12726;DHT22;6427;49.754;6.106;2024-03-23T02:36:26;9.30;99.90
12726;DHT22;6427;49.754;6.106;2024-03-23T02:38:53;9.30;99.90
12726;DHT22;6427;49.754;6.106;2024-03-23T02:41:21;9.30;99.90
12726;DHT22;6427;49.754;6.106;2024-03-23T02:43:52;9.30;99.90
12726;DHT22;6427;49.754;6.106;2024-03-23T02:46:16;9.30;99.90
12726;DHT22;6427;49.754;6.106;2024-03-23T02:48:43;9.30;99.90
12726;DHT22;6427;49.754;6.106;2024-03-23T02:51:11;9.30;99.90
12726;DHT22;6427;49.754;6.106;2024-03-23T02:53:39;9.30;99.90
12726;DHT22;6427;49.754;6.106;2024-03-23T02:56:06;9.30;99.90
12726;DHT22;6427;49.754;6.106;2024-03-23T02:58:34;9.30;99.90
12726;DHT22;6427;49.754;6.106;2024-03-23T03:01:01;9.20;99.90
12726;DHT22;6427;49.754;6.106;2024-03-23T03:03:29;9.50;99.90
12726;DHT22;6427;49.754;6.106;2024-03-23T03:05:56;9.40;99.90
12726;DHT22;6427;49.754;6.106;2024-03-23T03:08:24;9.40;99.90
12726;DHT22;6427;49.754;6.106;2024-03-23T03:10:51;9.30;99.90
12726;DHT22;6427;49.754;6.106;2024-03-23T03:13:19;9.60;99.90
12726;DHT22;6427;49.754;6.106;2024-03-23T03:15:47;9.90;99.90
12726;DHT22;6427;49.754;6.106;2024-03-23T03:18:14;9.60;99.90
12726;DHT22;6427;49.754;6.106;2024-03-23T03:20:42;10.00;99.90
12726;DHT22;6427;49.754;6.106;2024-03-23T03:23:10;9.90;99.90
12726;DHT22;6427;49.754;6.106;2024-03-23T03:25:38;9.70;99.90
12726;DHT22;6427;49.754;6.106;2024-03-23T03:28:06;9.40;99.90
12726;DHT22;6427;49.754;6.106;2024-03-23T03:30:33;9.30;99.90
12726;DHT22;6427;49.754;6.106;2024-03-23T03:33:02;9.00;99.90
12726;DHT22;6427;49.754;6.106;2024-03-23T03:35:29;9.00;99.90
12726;DHT22;6427;49.754;6.106;2024-03-23T03:37:57;8.90;99.90
12726;DHT22;6427;49.754;6.106;2024-03-23T03:40:24;9.20;99.90
12726;DHT22;6427;49.754;6.106;2024-03-23T03:42:52;9.40;99.90
12726;DHT22;6427;49.754;6.106;2024-03-23T03:45:20;9.00;99.90
12726;DHT22;6427;49.754;6.106;2024-03-23T03:47:47;9.10;99.90
12726;DHT22;6427;49.754;6.106;2024-03-23T03:50:15;8.80;99.90
12726;DHT22;6427;49.754;6.106;2024-03-23T03:52:42;8.60;99.90
12726;DHT22;6427;49.754;6.106;2024-03-23T03:55:13;8.60;99.90
12726;DHT22;6427;49.754;6.106;2024-03-23T03:57:41;8.50;99.90
12726;DHT22;6427;49.754;6.106;2024-03-23T04:00:08;8.40;99.90
12726;DHT22;6427;49.754;6.106;2024-03-23T04:02:39;8.50;99.90
12726;DHT22;6427;49.754;6.106;2024-03-23T04:05:07;8.70;99.90
12726;DHT22;6427;49.754;6.106;2024-03-23T04:10:12;8.80;99.90
12726;DHT22;6427;49.754;6.106;2024-03-23T04:12:39;8.50;99.90
12726;DHT22;6427;49.754;6.106;2024-03-23T04:15:07;8.30;99.90
12726;DHT22;6427;49.754;6.106;2024-03-23T04:17:35;8.30;99.90
12726;DHT22;6427;49.754;6.106;2024-03-23T04:20:03;8.30;99.90
12726;DHT22;6427;49.754;6.106;2024-03-23T04:22:30;8.20;99.90
12726;DHT22;6427;49.754;6.106;2024-03-23T04:24:58;8.00;99.90
12726;DHT22;6427;49.754;6.106;2024-03-23T04:27:25;7.90;99.90
12726;DHT22;6427;49.754;6.106;2024-03-23T04:29:54;7.80;99.90
12726;DHT22;6427;49.754;6.106;2024-03-23T04:32:21;7.80;99.90
12726;DHT22;6427;49.754;6.106;2024-03-23T04:34:49;7.80;99.90
12726;DHT22;6427;49.754;6.106;2024-03-23T04:37:16;7.70;99.90
12726;DHT22;6427;49.754;6.106;2024-03-23T04:39:45;7.60;99.90
12726;DHT22;6427;49.754;6.106;2024-03-23T04:42:14;7.60;99.90
12726;DHT22;6427;49.754;6.106;2024-03-23T04:44:40;7.60;99.90
12726;DHT22;6427;49.754;6.106;2024-03-23T04:47:07;7.60;99.90
12726;DHT22;6427;49.754;6.106;2024-03-23T04:49:35;7.60;99.90
12726;DHT22;6427;49.754;6.106;2024-03-23T04:52:04;7.50;99.90
12726;DHT22;6427;49.754;6.106;2024-03-23T04:54:31;7.50;99.90
12726;DHT22;6427;49.754;6.106;2024-03-23T04:56:58;7.50;99.90
12726;DHT22;6427;49.754;6.106;2024-03-23T04:59:26;7.50;99.90
12726;DHT22;6427;49.754;6.106;2024-03-23T05:01:54;7.40;99.90
12726;DHT22;6427;49.754;6.106;2024-03-23T05:04:22;7.40;99.90
12726;DHT22;6427;49.754;6.106;2024-03-23T05:06:49;7.40;99.90
12726;DHT22;6427;49.754;6.106;2024-03-23T05:09:17;7.60;99.90
12726;DHT22;6427;49.754;6.106;2024-03-23T05:11:44;7.50;99.90
12726;DHT22;6427;49.754;6.106;2024-03-23T05:14:13;7.40;99.90
12726;DHT22;6427;49.754;6.106;2024-03-23T05:16:39;7.30;99.90
12726;DHT22;6427;49.754;6.106;2024-03-23T05:19:07;7.60;99.90
12726;DHT22;6427;49.754;6.106;2024-03-23T05:21:35;7.40;99.90
12726;DHT22;6427;49.754;6.106;2024-03-23T05:24:02;7.70;99.90
12726;DHT22;6427;49.754;6.106;2024-03-23T05:26:30;7.50;99.90
12726;DHT22;6427;49.754;6.106;2024-03-23T05:28:57;7.30;99.90
12726;DHT22;6427;49.754;6.106;2024-03-23T05:31:25;7.20;99.90
12726;DHT22;6427;49.754;6.106;2024-03-23T05:33:52;7.10;99.90
12726;DHT22;6427;49.754;6.106;2024-03-23T05:36:20;7.30;99.90
12726;DHT22;6427;49.754;6.106;2024-03-23T05:38:47;7.60;99.90
12726;DHT22;6427;49.754;6.106;2024-03-23T05:41:15;7.80;99.90
12726;DHT22;6427;49.754;6.106;2024-03-23T05:43:43;7.60;99.90
12726;DHT22;6427;49.754;6.106;2024-03-23T05:46:10;7.40;99.90
12726;DHT22;6427;49.754;6.106;2024-03-23T05:48:38;7.30;99.90
12726;DHT22;6427;49.754;6.106;2024-03-23T05:51:05;7.10;99.90
12726;DHT22;6427;49.754;6.106;2024-03-23T05:53:34;7.00;99.90
12726;DHT22;6427;49.754;6.106;2024-03-23T05:56:02;7.00;99.90
12726;DHT22;6427;49.754;6.106;2024-03-23T05:58:29;7.40;99.90
12726;DHT22;6427;49.754;6.106;2024-03-23T06:01:00;7.30;99.90
12726;DHT22;6427;49.754;6.106;2024-03-23T06:03:27;7.20;99.90
12726;DHT22;6427;49.754;6.106;2024-03-23T06:05:55;7.10;99.90
12726;DHT22;6427;49.754;6.106;2024-03-23T06:08:23;7.10;99.90
12726;DHT22;6427;49.754;6.106;2024-03-23T06:10:50;7.10;99.90
12726;DHT22;6427;49.754;6.106;2024-03-23T06:13:19;7.10;99.90
12726;DHT22;6427;49.754;6.106;2024-03-23T06:15:46;7.00;99.90
12726;DHT22;6427;49.754;6.106;2024-03-23T06:18:14;7.10;99.90
12726;DHT22;6427;49.754;6.106;2024-03-23T06:20:42;7.10;99.90
12726;DHT22;6427;49.754;6.106;2024-03-23T06:23:10;7.10;99.90
12726;DHT22;6427;49.754;6.106;2024-03-23T06:25:38;7.10;99.90
12726;DHT22;6427;49.754;6.106;2024-03-23T06:28:05;7.50;99.90
12726;DHT22;6427;49.754;6.106;2024-03-23T06:30:33;7.70;99.90
12726;DHT22;6427;49.754;6.106;2024-03-23T06:33:01;7.70;99.90
12726;DHT22;6427;49.754;6.106;2024-03-23T06:35:28;7.60;99.90
12726;DHT22;6427;49.754;6.106;2024-03-23T06:37:57;7.90;99.90
12726;DHT22;6427;49.754;6.106;2024-03-23T06:40:24;7.90;99.90
12726;DHT22;6427;49.754;6.106;2024-03-23T06:42:52;7.80;99.90
12726;DHT22;6427;49.754;6.106;2024-03-23T06:45:19;7.70;99.90
12726;DHT22;6427;49.754;6.106;2024-03-23T06:47:47;7.70;99.90
12726;DHT22;6427;49.754;6.106;2024-03-23T06:50:15;7.70;99.90
12726;DHT22;6427;49.754;6.106;2024-03-23T06:52:42;7.60;99.90
12726;DHT22;6427;49.754;6.106;2024-03-23T06:55:10;7.70;99.90
12726;DHT22;6427;49.754;6.106;2024-03-23T06:57:37;7.70;99.90
12726;DHT22;6427;49.754;6.106;2024-03-23T07:00:07;7.60;99.90
12726;DHT22;6427;49.754;6.106;2024-03-23T07:02:35;7.60;99.90
12726;DHT22;6427;49.754;6.106;2024-03-23T07:05:02;7.60;99.90
12726;DHT22;6427;49.754;6.106;2024-03-23T07:07:30;7.60;99.90
12726;DHT22;6427;49.754;6.106;2024-03-23T07:09:58;7.60;99.90
12726;DHT22;6427;49.754;6.106;2024-03-23T07:12:26;7.60;99.90
12726;DHT22;6427;49.754;6.106;2024-03-23T07:14:53;7.60;99.90
12726;DHT22;6427;49.754;6.106;2024-03-23T07:17:21;7.60;99.90
12726;DHT22;6427;49.754;6.106;2024-03-23T07:19:49;7.70;99.90
12726;DHT22;6427;49.754;6.106;2024-03-23T07:22:17;7.70;99.90
12726;DHT22;6427;49.754;6.106;2024-03-23T07:24:44;7.70;99.90
12726;DHT22;6427;49.754;6.106;2024-03-23T07:27:12;7.70;99.90
12726;DHT22;6427;49.754;6.106;2024-03-23T07:29:40;7.80;99.90
12726;DHT22;6427;49.754;6.106;2024-03-23T07:32:08;7.80;99.90
12726;DHT22;6427;49.754;6.106;2024-03-23T07:34:35;7.80;99.90
12726;DHT22;6427;49.754;6.106;2024-03-23T07:37:03;7.80;99.90
12726;DHT22;6427;49.754;6.106;2024-03-23T07:39:31;7.90;99.90
12726;DHT22;6427;49.754;6.106;2024-03-23T07:41:58;8.00;99.90
12726;DHT22;6427;49.754;6.106;2024-03-23T07:44:27;8.10;99.90
12726;DHT22;6427;49.754;6.106;2024-03-23T07:46:54;8.10;99.90
12726;DHT22;6427;49.754;6.106;2024-03-23T07:49:22;8.20;99.90
12726;DHT22;6427;49.754;6.106;2024-03-23T07:51:50;8.30;99.90
12726;DHT22;6427;49.754;6.106;2024-03-23T07:54:17;8.30;99.90
12726;DHT22;6427;49.754;6.106;2024-03-23T07:56:45;8.40;99.90
12726;DHT22;6427;49.754;6.106;2024-03-23T07:59:13;8.40;99.90
12726;DHT22;6427;49.754;6.106;2024-03-23T08:01:40;8.60;99.90
12726;DHT22;6427;49.754;6.106;2024-03-23T08:04:08;8.60;99.90
12726;DHT22;6427;49.754;6.106;2024-03-23T08:06:36;8.70;99.90
12726;DHT22;6427;49.754;6.106;2024-03-23T08:09:03;8.70;99.90
12726;DHT22;6427;49.754;6.106;2024-03-23T08:11:32;8.80;99.90
12726;DHT22;6427;49.754;6.106;2024-03-23T08:13:59;8.80;99.90
12726;DHT22;6427;49.754;6.106;2024-03-23T08:16:27;8.80;99.90
12726;DHT22;6427;49.754;6.106;2024-03-23T08:18:54;8.90;99.90
12726;DHT22;6427;49.754;6.106;2024-03-23T08:21:24;8.90;99.90
12726;DHT22;6427;49.754;6.106;2024-03-23T08:23:52;8.90;99.90
12726;DHT22;6427;49.754;6.106;2024-03-23T08:26:19;9.00;99.90
12726;DHT22;6427;49.754;6.106;2024-03-23T08:28:47;9.00;99.90
12726;DHT22;6427;49.754;6.106;2024-03-23T08:31:14;9.00;99.90
12726;DHT22;6427;49.754;6.106;2024-03-23T08:33:42;9.00;99.90
12726;DHT22;6427;49.754;6.106;2024-03-23T08:36:10;9.00;99.90
12726;DHT22;6427;49.754;6.106;2024-03-23T08:38:41;9.10;99.90
12726;DHT22;6427;49.754;6.106;2024-03-23T08:41:09;9.10;99.90
12726;DHT22;6427;49.754;6.106;2024-03-23T08:43:37;9.20;99.90
12726;DHT22;6427;49.754;6.106;2024-03-23T08:46:07;9.30;99.90
12726;DHT22;6427;49.754;6.106;2024-03-23T08:48:35;9.30;99.90
12726;DHT22;6427;49.754;6.106;2024-03-23T08:51:06;9.40;99.90
12726;DHT22;6427;49.754;6.106;2024-03-23T08:53:37;9.80;99.90
12726;DHT22;6427;49.754;6.106;2024-03-23T08:56:02;9.70;99.90
12726;DHT22;6427;49.754;6.106;2024-03-23T08:58:30;9.80;99.90
12726;DHT22;6427;49.754;6.106;2024-03-23T09:01:02;9.80;99.90
12726;DHT22;6427;49.754;6.106;2024-03-23T09:03:25;9.60;99.90
12726;DHT22;6427;49.754;6.106;2024-03-23T09:05:53;9.60;99.90
12726;DHT22;6427;49.754;6.106;2024-03-23T09:08:21;9.60;99.90
12726;DHT22;6427;49.754;6.106;2024-03-23T09:10:48;9.50;99.90
12726;DHT22;6427;49.754;6.106;2024-03-23T09:13:16;9.50;99.90
12726;DHT22;6427;49.754;6.106;2024-03-23T09:15:48;9.60;99.90
12726;DHT22;6427;49.754;6.106;2024-03-23T09:18:15;9.60;99.90
12726;DHT22;6427;49.754;6.106;2024-03-23T09:20:42;9.60;99.90
12726;DHT22;6427;49.754;6.106;2024-03-23T09:23:10;9.60;99.90
12726;DHT22;6427;49.754;6.106;2024-03-23T09:25:37;9.60;99.90
12726;DHT22;6427;49.754;6.106;2024-03-23T09:28:07;9.80;99.90
12726;DHT22;6427;49.754;6.106;2024-03-23T09:30:38;10.00;99.90
12726;DHT22;6427;49.754;6.106;2024-03-23T09:33:06;10.00;99.90
12726;DHT22;6427;49.754;6.106;2024-03-23T09:35:37;10.10;99.90
12726;DHT22;6427;49.754;6.106;2024-03-23T09:38:04;10.10;99.90
12726;DHT22;6427;49.754;6.106;2024-03-23T09:40:31;10.50;99.90
12726;DHT22;6427;49.754;6.106;2024-03-23T09:42:59;10.70;99.20
12726;DHT22;6427;49.754;6.106;2024-03-23T09:45:27;10.60;98.80
12726;DHT22;6427;49.754;6.106;2024-03-23T09:47:57;10.60;98.90
12726;DHT22;6427;49.754;6.106;2024-03-23T09:50:24;10.60;98.70
12726;DHT22;6427;49.754;6.106;2024-03-23T09:52:52;10.60;98.20
12726;DHT22;6427;49.754;6.106;2024-03-23T09:55:19;11.00;97.10
12726;DHT22;6427;49.754;6.106;2024-03-23T09:57:47;10.90;96.70
12726;DHT22;6427;49.754;6.106;2024-03-23T10:00:15;10.90;96.50
12726;DHT22;6427;49.754;6.106;2024-03-23T10:02:42;10.80;96.60
12726;DHT22;6427;49.754;6.106;2024-03-23T10:05:19;10.80;96.50
12726;DHT22;6427;49.754;6.106;2024-03-23T10:07:44;10.50;95.70
12726;DHT22;6427;49.754;6.106;2024-03-23T10:10:11;10.50;95.70
12726;DHT22;6427;49.754;6.106;2024-03-23T10:12:43;10.30;96.00
12726;DHT22;6427;49.754;6.106;2024-03-23T10:15:10;9.90;96.90
12726;DHT22;6427;49.754;6.106;2024-03-23T10:17:34;9.90;98.80
12726;DHT22;6427;49.754;6.106;2024-03-23T10:20:02;9.40;99.30
12726;DHT22;6427;49.754;6.106;2024-03-23T10:22:29;8.90;99.90
12726;DHT22;6427;49.754;6.106;2024-03-23T10:24:57;8.60;99.90
12726;DHT22;6427;49.754;6.106;2024-03-23T10:27:24;8.30;99.90
12726;DHT22;6427;49.754;6.106;2024-03-23T10:29:52;8.10;99.90
12726;DHT22;6427;49.754;6.106;2024-03-23T10:32:19;8.00;99.90
12726;DHT22;6427;49.754;6.106;2024-03-23T10:34:47;7.80;99.90
12726;DHT22;6427;49.754;6.106;2024-03-23T10:37:15;8.10;99.90
12726;DHT22;6427;49.754;6.106;2024-03-23T10:39:42;8.30;99.90
12726;DHT22;6427;49.754;6.106;2024-03-23T10:42:10;8.20;99.90
12726;DHT22;6427;49.754;6.106;2024-03-23T10:44:38;8.00;99.90
12726;DHT22;6427;49.754;6.106;2024-03-23T10:47:06;8.00;99.90
12726;DHT22;6427;49.754;6.106;2024-03-23T10:49:34;8.00;99.90
12726;DHT22;6427;49.754;6.106;2024-03-23T10:52:05;8.10;99.90
12726;DHT22;6427;49.754;6.106;2024-03-23T10:54:32;8.50;99.90
12726;DHT22;6427;49.754;6.106;2024-03-23T10:57:06;8.50;99.90
12726;DHT22;6427;49.754;6.106;2024-03-23T10:59:34;8.50;99.90
12726;DHT22;6427;49.754;6.106;2024-03-23T11:02:01;8.50;99.90
12726;DHT22;6427;49.754;6.106;2024-03-23T11:04:37;8.50;99.90
12726;DHT22;6427;49.754;6.106;2024-03-23T11:09:54;9.10;99.90
12726;DHT22;6427;49.754;6.106;2024-03-23T11:15:05;9.60;99.90
12726;DHT22;6427;49.754;6.106;2024-03-23T11:17:32;9.50;99.90
12726;DHT22;6427;49.754;6.106;2024-03-23T11:20:00;9.70;99.90
12726;DHT22;6427;49.754;6.106;2024-03-23T11:22:46;10.10;99.90
12726;DHT22;6427;49.754;6.106;2024-03-23T11:25:22;10.20;99.90
12726;DHT22;6427;49.754;6.106;2024-03-23T11:27:54;10.20;99.90
12726;DHT22;6427;49.754;6.106;2024-03-23T11:30:24;10.20;99.90
12726;DHT22;6427;49.754;6.106;2024-03-23T11:32:55;10.20;99.90
12726;DHT22;6427;49.754;6.106;2024-03-23T11:35:37;10.20;99.90
12726;DHT22;6427;49.754;6.106;2024-03-23T11:38:05;10.20;99.90
12726;DHT22;6427;49.754;6.106;2024-03-23T11:40:33;10.20;99.90
12726;DHT22;6427;49.754;6.106;2024-03-23T11:43:01;10.30;99.90
12726;DHT22;6427;49.754;6.106;2024-03-23T11:45:28;10.30;99.60
12726;DHT22;6427;49.754;6.106;2024-03-23T11:48:09;10.30;99.20
12726;DHT22;6427;49.754;6.106;2024-03-23T11:50:37;10.20;99.10
12726;DHT22;6427;49.754;6.106;2024-03-23T11:55:46;10.10;98.40
12726;DHT22;6427;49.754;6.106;2024-03-23T11:58:13;10.00;98.40
12726;DHT22;6427;49.754;6.106;2024-03-23T12:00:41;9.90;98.90
12726;DHT22;6427;49.754;6.106;2024-03-23T12:03:08;9.70;99.40
12726;DHT22;6427;49.754;6.106;2024-03-23T12:05:36;9.50;99.90
12726;DHT22;6427;49.754;6.106;2024-03-23T12:08:18;9.40;99.90
12726;DHT22;6427;49.754;6.106;2024-03-23T12:10:50;9.30;99.90
12726;DHT22;6427;49.754;6.106;2024-03-23T12:13:20;9.30;99.90
12726;DHT22;6427;49.754;6.106;2024-03-23T12:15:47;9.20;99.90
12726;DHT22;6427;49.754;6.106;2024-03-23T12:18:15;9.50;99.90
12726;DHT22;6427;49.754;6.106;2024-03-23T12:20:43;9.50;99.90
12726;DHT22;6427;49.754;6.106;2024-03-23T12:23:11;9.40;99.90
12726;DHT22;6427;49.754;6.106;2024-03-23T12:25:39;9.40;99.90
12726;DHT22;6427;49.754;6.106;2024-03-23T12:28:06;9.30;99.90
12726;DHT22;6427;49.754;6.106;2024-03-23T12:30:38;9.30;99.90
12726;DHT22;6427;49.754;6.106;2024-03-23T12:33:05;9.70;99.90
12726;DHT22;6427;49.754;6.106;2024-03-23T12:35:32;9.70;99.90
12726;DHT22;6427;49.754;6.106;2024-03-23T12:38:01;9.80;99.50
12726;DHT22;6427;49.754;6.106;2024-03-23T12:40:28;9.80;99.50
12726;DHT22;6427;49.754;6.106;2024-03-23T12:42:56;9.90;99.40
12726;DHT22;6427;49.754;6.106;2024-03-23T12:45:24;10.40;98.70
12726;DHT22;6427;49.754;6.106;2024-03-23T12:47:51;10.40;98.20
12726;DHT22;6427;49.754;6.106;2024-03-23T12:50:19;10.40;98.10
12726;DHT22;6427;49.754;6.106;2024-03-23T12:52:46;10.50;97.90
12726;DHT22;6427;49.754;6.106;2024-03-23T12:55:14;10.80;96.80
12726;DHT22;6427;49.754;6.106;2024-03-23T12:57:42;10.70;96.10
12726;DHT22;6427;49.754;6.106;2024-03-23T13:00:09;10.50;95.90
12726;DHT22;6427;49.754;6.106;2024-03-23T13:02:40;10.20;96.90
12726;DHT22;6427;49.754;6.106;2024-03-23T13:05:08;10.20;96.90
12726;DHT22;6427;49.754;6.106;2024-03-23T13:07:38;10.10;96.50
12726;DHT22;6427;49.754;6.106;2024-03-23T13:10:06;10.00;96.20
12726;DHT22;6427;49.754;6.106;2024-03-23T13:12:34;10.10;95.80
12726;DHT22;6427;49.754;6.106;2024-03-23T13:15:01;10.00;95.70
12726;DHT22;6427;49.754;6.106;2024-03-23T13:17:29;9.80;96.00
12726;DHT22;6427;49.754;6.106;2024-03-23T13:19:57;9.70;96.80
12726;DHT22;6427;49.754;6.106;2024-03-23T13:22:25;9.70;98.00
12726;DHT22;6427;49.754;6.106;2024-03-23T13:24:52;9.60;98.00
12726;DHT22;6427;49.754;6.106;2024-03-23T13:27:20;9.70;98.30
12726;DHT22;6427;49.754;6.106;2024-03-23T13:29:47;9.60;97.90
12726;DHT22;6427;49.754;6.106;2024-03-23T13:32:15;9.60;98.10
12726;DHT22;6427;49.754;6.106;2024-03-23T13:34:43;9.60;98.40
12726;DHT22;6427;49.754;6.106;2024-03-23T13:37:10;9.60;98.20
12726;DHT22;6427;49.754;6.106;2024-03-23T13:39:38;9.60;97.90
12726;DHT22;6427;49.754;6.106;2024-03-23T13:42:06;9.50;97.90
12726;DHT22;6427;49.754;6.106;2024-03-23T13:44:34;9.40;97.90
12726;DHT22;6427;49.754;6.106;2024-03-23T13:47:01;9.40;97.40
12726;DHT22;6427;49.754;6.106;2024-03-23T13:49:29;9.30;97.00
12726;DHT22;6427;49.754;6.106;2024-03-23T13:51:56;9.10;97.00
12726;DHT22;6427;49.754;6.106;2024-03-23T13:54:25;8.60;97.90
12726;DHT22;6427;49.754;6.106;2024-03-23T13:56:53;8.60;97.90
12726;DHT22;6427;49.754;6.106;2024-03-23T13:59:20;8.20;98.70
12726;DHT22;6427;49.754;6.106;2024-03-23T14:01:48;8.20;98.70
12726;DHT22;6427;49.754;6.106;2024-03-23T14:04:16;8.10;99.10
12726;DHT22;6427;49.754;6.106;2024-03-23T14:06:49;7.90;99.10
12726;DHT22;6427;49.754;6.106;2024-03-23T14:09:19;7.70;99.90
12726;DHT22;6427;49.754;6.106;2024-03-23T14:11:46;7.70;99.90
12726;DHT22;6427;49.754;6.106;2024-03-23T14:14:14;7.60;99.90
12726;DHT22;6427;49.754;6.106;2024-03-23T14:16:41;7.50;99.90
12726;DHT22;6427;49.754;6.106;2024-03-23T14:19:09;7.60;99.90
12726;DHT22;6427;49.754;6.106;2024-03-23T14:21:36;8.00;99.90
12726;DHT22;6427;49.754;6.106;2024-03-23T14:24:04;8.50;99.90
12726;DHT22;6427;49.754;6.106;2024-03-23T14:26:32;8.40;99.90
12726;DHT22;6427;49.754;6.106;2024-03-23T14:29:00;8.70;99.90
12726;DHT22;6427;49.754;6.106;2024-03-23T14:31:28;8.70;99.90
12726;DHT22;6427;49.754;6.106;2024-03-23T14:33:55;8.70;99.90
12726;DHT22;6427;49.754;6.106;2024-03-23T14:36:23;8.70;99.90
12726;DHT22;6427;49.754;6.106;2024-03-23T14:38:51;8.70;99.90
12726;DHT22;6427;49.754;6.106;2024-03-23T14:41:19;9.00;99.90
12726;DHT22;6427;49.754;6.106;2024-03-23T14:43:46;9.00;99.90
12726;DHT22;6427;49.754;6.106;2024-03-23T14:46:14;9.10;99.90
12726;DHT22;6427;49.754;6.106;2024-03-23T14:48:45;9.20;99.90
12726;DHT22;6427;49.754;6.106;2024-03-23T14:51:12;9.30;99.90
12726;DHT22;6427;49.754;6.106;2024-03-23T14:53:41;9.40;99.90
12726;DHT22;6427;49.754;6.106;2024-03-23T14:56:08;9.40;99.90
12726;DHT22;6427;49.754;6.106;2024-03-23T14:58:35;9.40;99.90
12726;DHT22;6427;49.754;6.106;2024-03-23T15:01:07;9.40;99.90
12726;DHT22;6427;49.754;6.106;2024-03-23T15:03:37;9.30;99.90
12726;DHT22;6427;49.754;6.106;2024-03-23T15:06:05;9.30;99.90
12726;DHT22;6427;49.754;6.106;2024-03-23T15:08:33;9.30;99.90
12726;DHT22;6427;49.754;6.106;2024-03-23T15:11:01;9.30;99.90
12726;DHT22;6427;49.754;6.106;2024-03-23T15:13:28;9.30;99.90
12726;DHT22;6427;49.754;6.106;2024-03-23T15:15:56;9.30;99.90
12726;DHT22;6427;49.754;6.106;2024-03-23T15:18:23;9.20;99.90
12726;DHT22;6427;49.754;6.106;2024-03-23T15:21:00;9.20;99.90
12726;DHT22;6427;49.754;6.106;2024-03-23T15:23:30;9.20;99.90
12726;DHT22;6427;49.754;6.106;2024-03-23T15:25:58;9.20;99.90
12726;DHT22;6427;49.754;6.106;2024-03-23T15:28:26;9.20;99.90
12726;DHT22;6427;49.754;6.106;2024-03-23T15:31:05;9.20;99.90
12726;DHT22;6427;49.754;6.106;2024-03-23T15:33:33;9.10;98.90
12726;DHT22;6427;49.754;6.106;2024-03-23T15:36:00;9.30;97.70
12726;DHT22;6427;49.754;6.106;2024-03-23T15:38:28;9.10;97.70
12726;DHT22;6427;49.754;6.106;2024-03-23T15:40:55;9.00;98.10
12726;DHT22;6427;49.754;6.106;2024-03-23T15:43:23;8.80;98.10
12726;DHT22;6427;49.754;6.106;2024-03-23T15:45:57;8.70;98.40
12726;DHT22;6427;49.754;6.106;2024-03-23T15:48:21;8.70;98.50
12726;DHT22;6427;49.754;6.106;2024-03-23T15:50:52;8.60;98.90
12726;DHT22;6427;49.754;6.106;2024-03-23T15:53:20;8.60;98.90
12726;DHT22;6427;49.754;6.106;2024-03-23T15:55:59;8.50;98.90
12726;DHT22;6427;49.754;6.106;2024-03-23T15:58:24;8.50;98.90
12726;DHT22;6427;49.754;6.106;2024-03-23T16:01:04;8.50;98.90
12726;DHT22;6427;49.754;6.106;2024-03-23T16:03:31;8.40;98.90
12726;DHT22;6427;49.754;6.106;2024-03-23T16:05:59;8.40;99.20
12726;DHT22;6427;49.754;6.106;2024-03-23T16:08:26;8.40;99.20
12726;DHT22;6427;49.754;6.106;2024-03-23T16:10:54;8.40;99.10
12726;DHT22;6427;49.754;6.106;2024-03-23T16:13:21;8.40;99.10
12726;DHT22;6427;49.754;6.106;2024-03-23T16:15:55;8.40;99.00
12726;DHT22;6427;49.754;6.106;2024-03-23T16:18:24;8.70;98.00
12726;DHT22;6427;49.754;6.106;2024-03-23T16:20:58;8.70;98.00
12726;DHT22;6427;49.754;6.106;2024-03-23T16:23:25;8.60;98.30
12726;DHT22;6427;49.754;6.106;2024-03-23T16:25:53;8.50;98.30
12726;DHT22;6427;49.754;6.106;2024-03-23T16:28:30;8.60;98.50
12726;DHT22;6427;49.754;6.106;2024-03-23T16:31:00;8.60;98.40
12726;DHT22;6427;49.754;6.106;2024-03-23T16:33:27;8.70;98.40
12726;DHT22;6427;49.754;6.106;2024-03-23T16:35:58;8.70;98.50
12726;DHT22;6427;49.754;6.106;2024-03-23T16:38:22;8.80;98.40
12726;DHT22;6427;49.754;6.106;2024-03-23T16:40:55;9.20;98.20
12726;DHT22;6427;49.754;6.106;2024-03-23T16:43:20;9.20;97.70
12726;DHT22;6427;49.754;6.106;2024-03-23T16:46:01;9.10;97.80
12726;DHT22;6427;49.754;6.106;2024-03-23T16:48:27;9.00;97.70
12726;DHT22;6427;49.754;6.106;2024-03-23T16:50:58;8.90;97.70
12726;DHT22;6427;49.754;6.106;2024-03-23T16:53:25;8.80;97.90
12726;DHT22;6427;49.754;6.106;2024-03-23T16:55:59;8.70;97.90
12726;DHT22;6427;49.754;6.106;2024-03-23T16:58:29;8.60;98.10
12726;DHT22;6427;49.754;6.106;2024-03-23T17:01:05;8.50;98.30
12726;DHT22;6427;49.754;6.106;2024-03-23T17:03:32;8.40;98.50
12726;DHT22;6427;49.754;6.106;2024-03-23T17:06:02;8.30;98.70
12726;DHT22;6427;49.754;6.106;2024-03-23T17:08:30;8.30;98.80
12726;DHT22;6427;49.754;6.106;2024-03-23T17:10:58;8.20;99.00
12726;DHT22;6427;49.754;6.106;2024-03-23T17:13:25;8.20;99.50